Time;durP1;ratioP1;P1;durP2;ratioP2;P2;SDS_P1;SDS_P2;PMS_P1;PMS_P2;Temp;Humidity;BMP_temperature;BMP_pressure;BME280_temperature;BME280_humidity;BME280_pressure;Samples;Min_cycle;Max_cycle;Signal;HPM_P1;HPM_P2
2024/02/23 00:00:30;;;;;;;20.80;13.30;;;;;;;6.62;49.34;93548.13;5050809;28;20045;-73
2024/02/23 00:02:57;;;;;;;20.48;13.55;;;;;;;6.85;49.45;93578.06;5050723;28;20105;-72
2024/02/23 00:05:23;;;;;;;20.80;12.45;;;;;;;6.89;48.85;93578.28;5051410;28;20028;-73
2024/02/23 00:07:49;;;;;;;18.58;13.52;;;;;;;6.49;49.86;93563.97;5050841;28;20044;-73
2024/02/23 00:10:14;;;;;;;24.67;16.20;;;;;;;5.97;50.48;93537.66;5050929;28;20033;-73
2024/02/23 00:12:39;;;;;;;45.72;24.92;;;;;;;6.34;50.52;93583.53;5049764;28;20441;-73
2024/02/23 00:15:05;;;;;;;32.90;17.60;;;;;;;6.42;49.76;93575.72;5050967;28;20028;-73
2024/02/23 00:17:31;;;;;;;21.42;13.63;;;;;;;6.39;50.00;93575.53;5050960;28;20381;-73
2024/02/23 00:19:56;;;;;;;21.50;13.45;;;;;;;6.27;50.36;93568.06;5050115;28;20457;-73
2024/02/23 00:22:22;;;;;;;18.75;13.90;;;;;;;6.28;50.69;93580.19;5050183;28;20438;-73
2024/02/23 00:24:47;;;;;;;20.83;14.40;;;;;;;6.35;50.38;93582.47;5050695;28;20049;-73
2024/02/23 00:27:12;;;;;;;20.20;14.00;;;;;;;6.49;50.40;93577.97;5050410;28;20513;-73
2024/02/23 00:29:38;;;;;;;19.35;13.95;;;;;;;6.17;50.33;93562.97;5051029;28;20090;-73
2024/02/23 00:32:04;;;;;;;17.52;13.52;;;;;;;6.52;49.80;93580.03;5050025;28;20525;-73
2024/02/23 00:34:31;;;;;;;19.77;12.35;;;;;;;6.40;50.03;93569.16;5050455;28;20056;-73
2024/02/23 00:36:57;;;;;;;15.50;11.48;;;;;;;6.18;49.78;93564.53;5050042;28;20052;-73
2024/02/23 00:39:23;;;;;;;19.90;13.13;;;;;;;5.78;50.88;93559.91;5049924;28;20057;-73
2024/02/23 00:41:48;;;;;;;19.23;11.23;;;;;;;5.83;51.30;93549.25;5050797;28;20025;-73
2024/02/23 00:44:14;;;;;;;17.85;12.32;;;;;;;6.08;50.54;93538.28;5050535;28;20029;-73
2024/02/23 00:46:39;;;;;;;16.10;11.13;;;;;;;6.33;49.93;93566.13;5050303;28;20567;-72
2024/02/23 00:49:05;;;;;;;18.23;10.55;;;;;;;6.46;49.88;93564.56;5050319;28;20044;-73
2024/02/23 00:51:31;;;;;;;15.77;11.18;;;;;;;6.09;49.85;93528.50;5050154;28;20028;-73
2024/02/23 00:53:56;;;;;;;16.65;9.80;;;;;;;6.32;50.17;93536.28;5050223;28;20021;-72
2024/02/23 00:56:22;;;;;;;13.15;9.40;;;;;;;6.54;49.53;93538.25;5050760;28;20631;-74
2024/02/23 00:58:47;;;;;;;17.52;11.35;;;;;;;6.50;49.16;93549.69;5050055;28;20041;-73
2024/02/23 01:01:13;;;;;;;14.95;10.93;;;;;;;6.00;50.16;93515.97;5050002;28;20478;-72
2024/02/23 01:03:38;;;;;;;15.10;10.48;;;;;;;5.86;51.13;93533.66;5049861;28;20037;-73
2024/02/23 01:06:04;;;;;;;17.05;10.75;;;;;;;6.18;50.47;93543.41;5050194;28;20533;-73
2024/02/23 01:08:29;;;;;;;15.88;11.13;;;;;;;6.41;50.22;93536.38;5050271;28;20595;-73
2024/02/23 01:10:55;;;;;;;14.77;10.60;;;;;;;6.41;50.30;93539.00;5050035;28;20059;-73
2024/02/23 01:13:20;;;;;;;13.48;9.93;;;;;;;6.46;50.06;93538.91;5050035;28;20461;-73
2024/02/23 01:15:45;;;;;;;19.63;11.05;;;;;;;6.22;49.94;93530.38;5049938;28;20041;-73
2024/02/23 01:18:11;;;;;;;13.73;9.73;;;;;;;6.37;50.21;93532.75;5049729;28;20497;-72
2024/02/23 01:20:36;;;;;;;11.68;8.82;;;;;;;6.39;49.89;93523.47;5051011;28;20017;-73
2024/02/23 01:23:02;;;;;;;15.77;10.65;;;;;;;5.56;50.73;93542.06;5050145;28;20037;-73
2024/02/23 01:25:27;;;;;;;13.48;9.13;;;;;;;6.02;51.13;93540.22;5054376;28;20116;-73
2024/02/23 01:27:53;;;;;;;15.25;10.65;;;;;;;6.27;50.29;93525.81;5054505;28;20505;-73
2024/02/23 01:30:18;;;;;;;16.52;10.45;;;;;;;6.28;50.33;93526.59;5054592;28;20037;-73
2024/02/23 01:32:44;;;;;;;13.20;9.23;;;;;;;6.46;49.53;93527.59;5054553;28;20013;-73
2024/02/23 01:35:10;;;;;;;12.27;8.27;;;;;;;6.59;49.42;93532.88;5054310;28;20037;-73
2024/02/23 01:37:36;;;;;;;11.98;9.68;;;;;;;6.48;49.03;93478.66;5054335;28;20037;-73
2024/02/23 01:40:01;;;;;;;14.07;9.73;;;;;;;6.29;49.34;93507.03;5053962;28;20053;-73
2024/02/23 01:42:26;;;;;;;12.82;8.70;;;;;;;6.25;49.35;93501.56;5054226;28;20037;-73
2024/02/23 01:44:52;;;;;;;13.68;9.35;;;;;;;5.81;50.19;93509.97;5054359;28;20686;-72
2024/02/23 01:47:18;;;;;;;14.38;9.98;;;;;;;4.97;52.18;93505.75;5054439;28;20387;-73
2024/02/23 01:49:46;;;;;;;14.88;9.20;;;;;;;5.56;51.33;93497.22;5053890;28;20131;-72
2024/02/23 01:52:12;;;;;;;14.13;9.55;;;;;;;5.91;50.50;93516.94;5053943;28;20560;-73
2024/02/23 01:54:38;;;;;;;14.50;10.05;;;;;;;5.58;51.17;93492.41;5053738;28;20044;-73
2024/02/23 01:57:04;;;;;;;13.90;9.57;;;;;;;5.86;51.00;93499.34;5053856;28;20029;-72
2024/02/23 01:59:29;;;;;;;15.70;10.27;;;;;;;6.19;49.80;93491.38;5054639;28;20021;-73
2024/02/23 02:01:55;;;;;;;14.95;10.80;;;;;;;6.35;49.45;93496.09;5052480;28;20033;-73
2024/02/23 02:04:21;;;;;;;16.38;10.90;;;;;;;6.16;49.27;93465.56;5052368;28;20040;-73
2024/02/23 02:06:48;;;;;;;19.25;13.38;;;;;;;6.17;49.95;93494.31;5053531;28;20041;-73
2024/02/23 02:09:14;;;;;;;15.75;10.95;;;;;;;6.36;49.69;93496.88;5035780;28;20257;-73
2024/02/23 02:11:47;;;;;;;17.20;9.38;;;;;;;6.47;49.68;93492.16;5054224;28;20475;-73
2024/02/23 02:14:13;;;;;;;14.45;9.00;;;;;;;6.52;49.50;93474.34;5053214;28;20040;-73
2024/02/23 02:16:38;;;;;;;16.25;8.70;;;;;;;6.69;49.21;93485.09;5053440;28;20040;-74
2024/02/23 02:19:04;;;;;;;22.55;13.65;;;;;;;6.63;48.79;93502.13;5053344;28;20036;-73
2024/02/23 02:21:31;;;;;;;13.25;9.40;;;;;;;6.44;49.10;93504.09;5053159;28;20383;-72
2024/02/23 02:23:56;;;;;;;12.80;9.00;;;;;;;6.30;49.69;93490.13;5053449;28;20021;-72
2024/02/23 02:26:22;;;;;;;15.80;11.00;;;;;;;6.40;49.45;93474.06;5053977;28;20073;-73
2024/02/23 02:28:47;;;;;;;12.20;8.45;;;;;;;6.62;48.93;93490.00;5053427;28;20588;-73
2024/02/23 02:31:13;;;;;;;13.63;9.38;;;;;;;6.49;49.00;93496.06;5053201;28;20041;-72
2024/02/23 02:33:40;;;;;;;13.55;9.55;;;;;;;6.39;49.10;93507.63;5052797;28;20674;-73
2024/02/23 02:36:05;;;;;;;12.52;9.63;;;;;;;6.48;49.21;93505.06;5052018;28;20048;-74
2024/02/23 02:38:33;;;;;;;15.18;9.70;;;;;;;6.22;49.72;93472.31;5053539;28;20378;-73
2024/02/23 02:41:00;;;;;;;12.40;9.30;;;;;;;6.52;49.17;93495.47;5052686;28;20041;-73
2024/02/23 02:43:26;;;;;;;12.02;8.80;;;;;;;6.52;49.06;93498.13;5052638;28;20506;-73
2024/02/23 02:45:51;;;;;;;14.57;9.48;;;;;;;6.48;49.18;93477.88;5052995;28;20033;-73
2024/02/23 02:48:17;;;;;;;13.82;9.23;;;;;;;5.78;50.44;93504.47;5052877;28;20056;-73
2024/02/23 02:50:42;;;;;;;13.20;9.65;;;;;;;6.24;50.22;93507.91;5053517;28;20025;-73
2024/02/23 02:53:08;;;;;;;14.25;9.38;;;;;;;6.55;49.53;93492.25;5052616;28;20558;-72
2024/02/23 02:55:33;;;;;;;12.00;9.15;;;;;;;6.69;49.28;93490.38;5052783;28;20064;-73
2024/02/23 02:57:58;;;;;;;14.52;10.45;;;;;;;6.75;49.29;93488.44;5052640;28;20037;-73
2024/02/23 03:00:24;;;;;;;12.85;9.50;;;;;;;6.86;48.80;93495.81;5052709;28;20585;-73
2024/02/23 03:02:49;;;;;;;15.80;9.10;;;;;;;6.79;48.24;93494.69;5052351;28;20021;-71
2024/02/23 03:05:15;;;;;;;11.65;8.60;;;;;;;6.59;49.35;93469.47;5053354;28;20079;-73
2024/02/23 03:07:41;;;;;;;14.80;9.07;;;;;;;6.75;49.21;93477.84;5034795;28;20029;-73
2024/02/23 03:10:07;;;;;;;13.45;9.27;;;;;;;6.99;48.98;93504.03;5052606;28;20037;-73
2024/02/23 03:12:32;;;;;;;12.23;8.82;;;;;;;6.94;48.51;93486.44;5052462;28;20033;-73
2024/02/23 03:14:58;;;;;;;10.48;8.52;;;;;;;6.96;48.67;93505.41;5052348;28;20504;-72
2024/02/23 03:17:23;;;;;;;11.38;8.68;;;;;;;6.81;48.75;93503.84;5052959;28;20032;-73
2024/02/23 03:19:50;;;;;;;13.23;10.20;;;;;;;6.84;49.13;93499.84;5052468;28;20497;-73
2024/02/23 03:22:15;;;;;;;11.90;9.45;;;;;;;6.95;48.76;93495.09;5052290;28;20486;-73
2024/02/23 03:24:41;;;;;;;16.95;12.02;;;;;;;7.01;48.58;93504.50;5052196;28;20107;-73
2024/02/23 03:27:06;;;;;;;16.60;11.10;;;;;;;6.68;49.35;93480.09;5052164;28;20017;-73
2024/02/23 03:29:32;;;;;;;18.88;11.65;;;;;;;6.79;49.49;93506.03;5052583;28;20025;-73
2024/02/23 03:31:57;;;;;;;16.88;11.77;;;;;;;6.72;49.43;93495.06;5052251;28;20037;-73
2024/02/23 03:34:23;;;;;;;14.57;9.70;;;;;;;6.73;49.61;93490.56;5051765;28;20040;-72
2024/02/23 03:36:48;;;;;;;18.42;13.27;;;;;;;6.69;49.44;93493.03;5051961;28;20033;-73
2024/02/23 03:39:14;;;;;;;27.67;16.52;;;;;;;6.66;49.53;93501.53;5052031;28;20060;-73
2024/02/23 03:41:39;;;;;;;18.98;13.27;;;;;;;6.48;49.78;93457.53;5052081;28;20585;-72
2024/02/23 03:44:05;;;;;;;13.82;9.73;;;;;;;6.79;49.52;93494.69;5051799;28;20033;-73
2024/02/23 03:46:30;;;;;;;26.95;15.50;;;;;;;6.69;49.58;93485.09;5051281;28;20116;-73
2024/02/23 03:48:56;;;;;;;16.98;11.80;;;;;;;6.42;50.44;93495.69;5051912;28;20112;-74
2024/02/23 03:51:22;;;;;;;15.88;10.60;;;;;;;6.23;50.56;93481.78;5051870;28;20048;-73
2024/02/23 03:53:47;;;;;;;15.95;10.73;;;;;;;6.38;50.57;93498.13;5052035;28;20036;-73
2024/02/23 03:56:12;;;;;;;18.30;10.65;;;;;;;6.35;50.65;93485.53;5051619;28;20320;-73
2024/02/23 03:58:38;;;;;;;13.77;8.90;;;;;;;6.49;50.26;93506.66;5051301;28;20123;-73
2024/02/23 04:01:03;;;;;;;13.18;8.88;;;;;;;6.39;50.29;93459.28;5051519;28;20053;-73
2024/02/23 04:03:29;;;;;;;11.57;8.50;;;;;;;6.51;50.25;93488.63;5051487;28;20257;-73
2024/02/23 04:05:54;;;;;;;15.40;9.77;;;;;;;6.58;50.06;93498.81;5051318;28;20159;-73
2024/02/23 04:08:19;;;;;;;16.55;10.43;;;;;;;6.58;50.16;93517.31;5051775;28;20417;-73
2024/02/23 04:10:45;;;;;;;15.65;11.27;;;;;;;6.63;50.03;93501.34;5051276;28;20029;-73
2024/02/23 04:13:13;;;;;;;14.68;10.75;;;;;;;6.53;50.11;93483.84;5051206;28;20498;-73
2024/02/23 04:15:39;;;;;;;14.82;8.60;;;;;;;6.53;49.94;93518.19;5051434;28;20040;-73
2024/02/23 04:18:05;;;;;;;15.40;10.30;;;;;;;6.36;50.45;93496.88;5051167;28;20025;-73
2024/02/23 04:20:30;;;;;;;14.30;9.85;;;;;;;6.49;50.06;93511.16;5051904;28;20461;-73
2024/02/23 04:22:55;;;;;;;13.10;9.90;;;;;;;6.56;49.83;93514.16;5050910;28;20489;-73
2024/02/23 04:25:21;;;;;;;14.95;9.75;;;;;;;6.51;49.87;93509.75;5033383;28;20110;-73
2024/02/23 04:27:46;;;;;;;12.57;8.98;;;;;;;6.53;49.67;93518.19;5050962;28;20029;-73
2024/02/23 04:30:12;;;;;;;16.42;10.55;;;;;;;6.42;50.07;93509.66;5051293;28;20398;-73
2024/02/23 04:32:38;;;;;;;13.40;9.65;;;;;;;6.48;50.17;93520.13;5051504;28;20060;-73
2024/02/23 04:35:04;;;;;;;14.52;9.27;;;;;;;6.38;49.81;93500.00;5050983;28;20046;-72
2024/02/23 04:37:30;;;;;;;15.52;10.48;;;;;;;6.23;50.42;93524.03;5050887;28;20036;-73
2024/02/23 04:39:55;;;;;;;13.02;9.27;;;;;;;6.15;50.78;93508.84;5050573;28;20060;-73
2024/02/23 04:42:20;;;;;;;15.18;9.98;;;;;;;6.19;50.50;93508.00;5050920;28;20114;-73
2024/02/23 04:44:46;;;;;;;12.88;9.15;;;;;;;6.13;50.79;93509.13;5051533;28;20074;-73
2024/02/23 04:47:11;;;;;;;15.15;9.57;;;;;;;6.23;50.30;93508.97;5050381;28;20033;-73
2024/02/23 04:49:37;;;;;;;14.52;9.93;;;;;;;6.45;49.96;93510.97;5050885;28;20033;-73
2024/02/23 04:52:02;;;;;;;15.80;10.43;;;;;;;6.21;50.01;93515.66;5050679;28;20086;-74
2024/02/23 04:54:28;;;;;;;15.88;10.05;;;;;;;6.07;50.41;93509.53;5050882;28;20029;-73
2024/02/23 04:56:53;;;;;;;12.82;9.75;;;;;;;5.94;50.87;93506.59;5050706;28;20021;-73
2024/02/23 04:59:19;;;;;;;13.38;10.32;;;;;;;5.97;50.47;93487.50;5055519;28;20025;-73
2024/02/23 05:01:44;;;;;;;13.10;9.25;;;;;;;6.26;49.98;93523.47;5057415;28;20033;-73
2024/02/23 05:04:09;;;;;;;15.32;10.80;;;;;;;6.23;49.86;93534.59;5057402;28;20037;-73
2024/02/23 05:06:35;;;;;;;11.77;8.85;;;;;;;6.12;50.19;93527.91;5057036;28;20556;-73
2024/02/23 05:09:01;;;;;;;13.32;9.57;;;;;;;5.87;50.17;93506.16;5057316;28;20045;-73
2024/02/23 05:11:26;;;;;;;14.90;8.68;;;;;;;6.09;50.21;93533.78;5058029;28;20025;-73
2024/02/23 05:13:52;;;;;;;13.15;9.25;;;;;;;6.09;49.88;93539.06;5057182;28;20037;-73
2024/02/23 05:16:17;;;;;;;14.68;10.40;;;;;;;6.05;50.26;93538.09;5057222;28;20057;-73
2024/02/23 05:18:43;;;;;;;14.38;10.38;;;;;;;6.04;50.21;93533.88;5057336;28;20452;-73
2024/02/23 05:21:09;;;;;;;16.88;12.27;;;;;;;5.73;50.81;93526.47;5056985;28;20117;-74
2024/02/23 05:23:35;;;;;;;18.05;12.90;;;;;;;5.84;50.50;93533.16;5057438;28;20549;-73
2024/02/23 05:26:01;;;;;;;26.92;18.00;;;;;;;5.76;50.89;93554.94;5057301;28;20124;-73
2024/02/23 05:28:27;;;;;;;19.25;13.55;;;;;;;5.58;51.45;93555.72;5056822;28;20029;-73
2024/02/23 05:30:54;;;;;;;20.35;11.95;;;;;;;5.12;52.18;93522.16;5057202;28;20044;-73
2024/02/23 05:33:20;;;;;;;23.00;13.75;;;;;;;5.64;51.65;93559.06;5056664;28;20040;-73
2024/02/23 05:35:48;;;;;;;17.23;11.50;;;;;;;5.69;51.27;93545.81;5057912;28;20052;-73
2024/02/23 05:38:14;;;;;;;16.52;12.07;;;;;;;5.85;51.17;93545.28;5056978;28;20029;-73
2024/02/23 05:40:39;;;;;;;16.52;10.65;;;;;;;5.94;50.96;93548.81;5057092;28;20051;-73
2024/02/23 05:43:05;;;;;;;22.00;12.55;;;;;;;5.95;51.09;93552.25;5056854;28;20551;-73
2024/02/23 05:45:30;;;;;;;18.58;13.13;;;;;;;6.08;50.71;93553.31;5057403;28;20033;-73
2024/02/23 05:47:56;;;;;;;16.33;12.63;;;;;;;5.98;50.71;93555.06;5056838;28;20029;-73
2024/02/23 05:50:21;;;;;;;21.20;11.43;;;;;;;6.00;50.50;93549.50;5057457;28;20020;-73
2024/02/23 05:52:47;;;;;;;17.15;11.93;;;;;;;5.55;51.06;93519.38;5057043;28;20025;-73
2024/02/23 05:55:12;;;;;;;15.50;10.90;;;;;;;5.83;51.29;93560.59;5056829;28;20564;-73
2024/02/23 05:57:37;;;;;;;11.80;10.30;;;;;;;5.94;50.74;93550.66;5056965;28;20111;-73
2024/02/23 06:00:04;;;;;;;16.52;10.27;;;;;;;6.00;50.82;93545.03;5056941;28;20029;-72
2024/02/23 06:02:29;;;;;;;20.63;11.98;;;;;;;5.67;51.17;93551.38;5039513;28;20390;-73
2024/02/23 06:04:55;;;;;;;15.98;11.35;;;;;;;5.74;51.61;93554.41;5056817;28;20120;-73
2024/02/23 06:07:26;;;;;;;16.50;10.93;;;;;;;5.98;51.27;93570.91;5056887;28;20525;-72
2024/02/23 06:09:52;;;;;;;15.70;11.98;;;;;;;6.19;51.03;93576.66;5056091;28;20044;-73
2024/02/23 06:12:17;;;;;;;14.23;10.30;;;;;;;5.54;50.58;93442.09;5053598;28;20025;-73
2024/02/23 06:14:42;;;;;;;14.73;10.93;;;;;;;6.43;50.48;93571.22;5054094;28;20066;-73
2024/02/23 06:17:08;;;;;;;19.35;11.90;;;;;;;5.87;51.37;93563.47;5053775;28;20041;-73
2024/02/23 06:19:33;;;;;;;19.25;12.20;;;;;;;6.40;50.56;93585.00;5053366;28;20730;-73
2024/02/23 06:21:59;;;;;;;21.92;12.73;;;;;;;6.53;50.65;93575.53;5052306;28;20033;-73
2024/02/23 06:24:24;;;;;;;20.50;12.40;;;;;;;6.77;50.23;93582.19;5053701;28;20029;-73
2024/02/23 06:26:51;;;;;;;17.08;11.65;;;;;;;6.95;49.82;93585.00;5035062;28;20505;-72
2024/02/23 06:29:16;;;;;;;17.05;10.23;;;;;;;6.98;49.54;93572.00;5053791;28;20060;-73
2024/02/23 06:31:42;;;;;;;21.00;12.98;;;;;;;6.86;49.89;93590.19;5053242;28;20084;-73
2024/02/23 06:34:08;;;;;;;20.90;12.30;;;;;;;7.03;49.78;93589.63;5053466;28;20770;-73
2024/02/23 06:36:33;;;;;;;17.23;12.43;;;;;;;6.87;49.67;93560.06;5053123;28;20040;-73
2024/02/23 06:38:59;;;;;;;21.42;12.13;;;;;;;7.06;49.57;93558.06;5052754;28;20478;-74
2024/02/23 06:41:24;;;;;;;24.15;12.55;;;;;;;7.15;49.57;93584.59;5053626;28;20027;-73
2024/02/23 06:43:52;;;;;;;19.75;12.57;;;;;;;7.33;49.56;93582.91;5052995;28;20029;-73
2024/02/23 06:46:19;;;;;;;20.95;13.00;;;;;;;7.53;49.05;93587.75;5052902;28;20029;-73
2024/02/23 06:48:45;;;;;;;23.15;11.90;;;;;;;7.60;49.00;93570.38;5052502;28;20265;-73
2024/02/23 06:51:11;;;;;;;23.50;13.32;;;;;;;6.72;49.54;93582.28;5052795;28;20553;-73
2024/02/23 06:53:37;;;;;;;21.92;13.40;;;;;;;6.89;50.91;93584.34;5053526;28;20112;-73
2024/02/23 06:56:03;;;;;;;24.60;12.75;;;;;;;6.95;50.14;93583.13;5052685;28;20040;-73
2024/02/23 06:58:28;;;;;;;27.50;15.25;;;;;;;6.26;51.93;93561.22;5052569;28;20037;-73
2024/02/23 07:00:54;;;;;;;26.27;12.25;;;;;;;5.91;52.54;93602.19;5052958;28;20537;-73
2024/02/23 07:03:19;;;;;;;17.27;11.57;;;;;;;5.83;52.69;93581.72;5052474;28;20045;-73
2024/02/23 07:05:45;;;;;;;21.67;11.25;;;;;;;5.71;53.27;93585.88;5035419;28;20025;-72
2024/02/23 07:08:11;;;;;;;24.80;12.48;;;;;;;5.91;53.03;93586.34;5052836;28;20406;-73
2024/02/23 07:10:37;;;;;;;23.10;14.35;;;;;;;5.62;53.05;93577.84;5052746;28;20025;-73
2024/02/23 07:13:02;;;;;;;24.35;13.15;;;;;;;5.18;54.34;93572.94;5052809;28;20567;-73
2024/02/23 07:15:28;;;;;;;21.80;14.40;;;;;;;5.12;54.68;93595.97;5052637;28;20028;-72
2024/02/23 07:17:53;;;;;;;20.15;13.50;;;;;;;4.89;55.57;93586.25;5052434;28;20067;-72
2024/02/23 07:20:19;;;;;;;20.13;12.55;;;;;;;5.14;55.32;93593.81;5052957;28;20028;-73
2024/02/23 07:22:48;;;;;;;22.02;12.63;;;;;;;5.39;54.73;93586.59;5051688;28;20057;-73
2024/02/23 07:25:17;;;;;;;23.25;14.32;;;;;;;5.27;54.69;93559.91;5052244;28;20037;-73
2024/02/23 07:27:43;;;;;;;22.23;13.38;;;;;;;5.17;54.21;93512.59;5051991;28;20033;-73
2024/02/23 07:30:09;;;;;;;18.13;12.52;;;;;;;5.25;54.75;93562.03;5051766;28;20021;-73
2024/02/23 07:32:35;;;;;;;17.58;12.50;;;;;;;5.27;54.45;93546.72;5034398;28;20485;-73
2024/02/23 07:35:00;;;;;;;22.30;13.10;;;;;;;5.61;53.98;93571.00;5052119;28;20029;-73
2024/02/23 07:37:27;;;;;;;20.75;12.95;;;;;;;5.46;54.29;93548.28;5052241;28;20037;-73
2024/02/23 07:39:52;;;;;;;20.48;13.52;;;;;;;5.67;54.05;93579.63;5051380;28;20041;-73
2024/02/23 07:42:18;;;;;;;20.80;13.80;;;;;;;5.73;54.48;93584.50;5051781;28;20036;-73
2024/02/23 07:44:44;;;;;;;25.98;15.70;;;;;;;5.66;54.50;93572.78;5052334;28;20094;-73
2024/02/23 07:47:10;;;;;;;25.65;15.23;;;;;;;5.66;54.47;93589.38;5051908;28;20044;-73
2024/02/23 07:49:35;;;;;;;24.42;13.88;;;;;;;5.89;54.58;93588.50;5051585;28;20029;-73
2024/02/23 07:52:00;;;;;;;20.17;13.20;;;;;;;5.62;54.10;93542.75;5051805;28;20037;-73
2024/02/23 07:54:26;;;;;;;24.42;13.65;;;;;;;6.04;54.03;93591.94;5051620;28;20040;-73
2024/02/23 07:56:51;;;;;;;20.38;13.00;;;;;;;6.41;53.57;93578.63;5051615;28;20031;-72
2024/02/23 07:59:16;;;;;;;20.42;13.68;;;;;;;6.99;52.71;93593.94;5052137;28;20032;-73
2024/02/23 08:01:42;;;;;;;28.42;13.48;;;;;;;7.42;51.03;93581.13;5051608;28;20110;-73
2024/02/23 08:04:07;;;;;;;20.63;13.55;;;;;;;6.98;51.46;93584.44;5051370;28;20052;-73
2024/02/23 08:06:32;;;;;;;27.63;13.55;;;;;;;7.02;52.16;93588.03;5051490;28;20037;-73
2024/02/23 08:08:58;;;;;;;25.42;13.55;;;;;;;7.32;51.20;93558.31;5051382;28;20035;-72
2024/02/23 08:11:23;;;;;;;25.25;13.73;;;;;;;7.33;51.01;93551.94;5052235;28;20525;-73
2024/02/23 08:13:49;;;;;;;22.05;12.95;;;;;;;7.36;51.00;93577.78;5050926;28;20033;-73
2024/02/23 08:16:17;;;;;;;20.85;13.95;;;;;;;7.43;51.14;93572.88;5051389;28;20159;-73
2024/02/23 08:18:42;;;;;;;22.35;13.90;;;;;;;7.39;51.86;93566.59;5051288;28;20405;-73
2024/02/23 08:21:10;;;;;;;29.00;15.27;;;;;;;7.20;51.99;93573.91;5051459;28;20036;-73
2024/02/23 08:23:36;;;;;;;28.27;15.30;;;;;;;7.19;52.30;93551.97;5052246;28;20108;-74
2024/02/23 08:26:01;;;;;;;25.20;14.00;;;;;;;7.44;51.69;93571.00;5051023;28;20123;-73
2024/02/23 08:28:27;;;;;;;22.80;12.95;;;;;;;7.18;51.77;93536.41;5051138;28;20036;-73
2024/02/23 08:30:53;;;;;;;21.23;13.10;;;;;;;7.70;51.37;93572.78;5051306;28;20040;-74
2024/02/23 08:33:18;;;;;;;25.88;13.55;;;;;;;7.38;51.71;93545.75;5050254;28;20037;-73
2024/02/23 08:35:43;;;;;;;17.30;12.63;;;;;;;7.78;50.99;93552.75;5051798;28;20401;-73
2024/02/23 08:38:10;;;;;;;16.77;11.68;;;;;;;7.79;51.16;93548.25;5050996;28;20033;-73
2024/02/23 08:40:36;;;;;;;20.00;11.32;;;;;;;8.54;49.77;93570.19;5050557;28;20071;-71
2024/02/23 08:43:01;;;;;;;17.17;12.05;;;;;;;9.04;49.28;93567.25;5050810;28;20037;-73
2024/02/23 08:45:27;;;;;;;18.27;13.07;;;;;;;9.13;48.71;93540.75;5050840;28;20486;-73
2024/02/23 08:47:52;;;;;;;18.67;11.73;;;;;;;8.99;48.21;93564.72;5050752;28;20108;-72
2024/02/23 08:50:17;;;;;;;19.90;11.98;;;;;;;8.80;48.67;93562.34;5051289;28;20432;-73
2024/02/23 08:52:43;;;;;;;18.90;10.82;;;;;;;8.87;48.29;93569.81;5050889;28;20141;-73
2024/02/23 08:55:08;;;;;;;19.73;11.90;;;;;;;8.85;49.06;93559.53;5051149;28;20033;-73
2024/02/23 08:57:34;;;;;;;21.98;13.95;;;;;;;8.77;48.85;93541.72;5050431;28;20119;-73
2024/02/23 08:59:59;;;;;;;20.75;12.35;;;;;;;8.92;49.26;93561.72;5050935;28;20033;-72
2024/02/23 09:02:25;;;;;;;22.63;12.93;;;;;;;9.23;48.57;93556.38;5051193;28;20017;-73
2024/02/23 09:04:51;;;;;;;21.23;11.70;;;;;;;9.03;48.47;93523.22;5050594;28;20506;-73
2024/02/23 09:07:19;;;;;;;22.40;12.07;;;;;;;9.16;47.79;93540.91;5050126;28;20063;-72
2024/02/23 09:09:45;;;;;;;21.20;12.10;;;;;;;8.86;49.27;93539.09;5032417;28;20087;-73
2024/02/23 09:12:11;;;;;;;9.32;6.22;;;;;;;8.66;48.61;93534.38;5050560;28;20033;-73
2024/02/23 09:14:38;;;;;;;16.98;9.38;;;;;;;9.19;47.96;93542.16;5051395;28;20113;-73
2024/02/23 09:17:04;;;;;;;18.25;10.45;;;;;;;9.06;48.94;93546.47;5050508;28;20072;-73
2024/02/23 09:19:30;;;;;;;14.68;9.00;;;;;;;8.95;48.58;93543.31;5050748;28;20067;-73
2024/02/23 09:21:55;;;;;;;8.98;6.22;;;;;;;8.84;48.16;93543.94;5050314;28;20514;-73
2024/02/23 09:24:21;;;;;;;10.18;5.68;;;;;;;9.16;47.98;93538.25;5050864;28;20033;-73
2024/02/23 09:26:47;;;;;;;8.63;5.57;;;;;;;9.47;46.51;93548.75;5051306;28;20478;-73
2024/02/23 09:29:13;;;;;;;11.15;7.05;;;;;;;9.06;46.51;93503.25;5050250;28;20040;-73
2024/02/23 09:31:38;;;;;;;10.68;6.65;;;;;;;9.45;46.13;93540.31;5050507;28;20034;-73
2024/02/23 09:34:04;;;;;;;13.30;7.85;;;;;;;9.51;46.66;93528.44;5050406;28;20510;-73
2024/02/23 09:36:30;;;;;;;8.77;5.72;;;;;;;9.68;46.13;93535.63;5050156;28;20029;-73
2024/02/23 09:38:55;;;;;;;9.45;5.30;;;;;;;10.08;45.10;93539.63;5050586;28;20481;-71
2024/02/23 09:41:22;;;;;;;7.70;4.80;;;;;;;9.87;44.99;93541.41;5050594;28;20036;-73
2024/02/23 09:43:52;;;;;;;6.80;4.30;;;;;;;9.74;44.56;93508.59;5050460;28;20037;-73
2024/02/23 09:46:18;;;;;;;5.55;4.00;;;;;;;9.96;44.82;93536.84;5053608;28;20044;-73
2024/02/23 09:48:45;;;;;;;10.95;4.28;;;;;;;10.33;44.80;93532.69;5054062;28;20394;-73
2024/02/23 09:51:12;;;;;;;4.65;3.38;;;;;;;10.26;44.33;93527.09;5054141;28;20100;-72
2024/02/23 09:53:38;;;;;;;7.82;3.95;;;;;;;10.40;44.46;93516.28;5054416;28;20023;-72
2024/02/23 09:56:05;;;;;;;5.15;3.60;;;;;;;10.98;44.33;93520.84;5053809;28;20037;-73
2024/02/23 09:58:32;;;;;;;5.97;3.45;;;;;;;10.69;42.70;93519.75;5053877;28;20037;-73
2024/02/23 10:00:59;;;;;;;5.20;4.00;;;;;;;10.68;42.93;93512.09;5053699;28;20060;-73
2024/02/23 10:03:28;;;;;;;6.40;3.20;;;;;;;10.83;42.93;93514.19;5053784;28;20106;-72
2024/02/23 10:05:54;;;;;;;9.90;3.50;;;;;;;10.69;42.71;93511.00;5053466;28;20029;-73
2024/02/23 10:08:19;;;;;;;4.70;3.53;;;;;;;10.90;42.90;93519.81;5054499;28;20027;-73
2024/02/23 10:10:47;;;;;;;9.18;5.68;;;;;;;11.11;42.37;93519.81;5054060;28;20506;-73
2024/02/23 10:13:12;;;;;;;5.10;3.53;;;;;;;11.14;42.24;93498.69;5053546;28;20033;-73
2024/02/23 10:15:37;;;;;;;5.28;3.50;;;;;;;11.33;41.66;93505.44;5053377;28;20033;-73
2024/02/23 10:18:04;;;;;;;5.45;3.10;;;;;;;11.34;40.21;93486.50;5053526;28;20063;-73
2024/02/23 10:20:29;;;;;;;5.15;3.17;;;;;;;11.37;40.93;93512.44;5053883;28;20025;-73
2024/02/23 10:22:56;;;;;;;4.18;2.67;;;;;;;11.45;40.79;93508.94;5035102;28;20048;-73
2024/02/23 10:25:21;;;;;;;4.70;2.70;;;;;;;11.51;41.27;93497.03;5053304;28;20116;-73
2024/02/23 10:27:47;;;;;;;6.35;3.00;;;;;;;11.16;40.92;93480.50;5053278;28;20554;-73
2024/02/23 10:30:14;;;;;;;5.30;2.72;;;;;;;11.46;40.78;93507.84;5053261;28;20402;-73
2024/02/23 10:32:41;;;;;;;5.43;3.15;;;;;;;11.60;40.54;93484.41;5053661;28;20155;-74
2024/02/23 10:35:13;;;;;;;3.95;2.80;;;;;;;12.06;39.46;93508.44;5053357;28;20029;-73
2024/02/23 10:37:38;;;;;;;5.40;3.15;;;;;;;11.72;40.13;93491.69;5053146;28;20040;-73
2024/02/23 10:40:09;;;;;;;2.88;2.50;;;;;;;11.33;39.98;93478.81;5052829;28;20049;-73
2024/02/23 10:42:37;;;;;;;4.88;2.90;;;;;;;10.43;40.58;93467.78;5053024;28;20045;-73
2024/02/23 10:45:05;;;;;;;10.65;3.38;;;;;;;10.77;41.17;93494.19;5052893;28;20033;-73
2024/02/23 10:47:30;;;;;;;3.38;2.85;;;;;;;10.75;40.55;93480.47;5053338;28;20049;-73
2024/02/23 10:49:59;;;;;;;7.03;3.70;;;;;;;11.14;40.93;93476.63;5053161;28;20102;-73
2024/02/23 10:52:26;;;;;;;4.75;2.22;;;;;;;11.01;40.07;93483.72;5052488;28;20028;-73
2024/02/23 10:54:53;;;;;;;2.78;2.28;;;;;;;11.01;40.42;93446.47;5052761;28;20056;-73
2024/02/23 10:57:19;;;;;;;4.18;2.53;;;;;;;11.51;40.00;93486.38;5051411;28;20029;-73
2024/02/23 10:59:48;;;;;;;3.25;2.50;;;;;;;11.38;39.67;93460.00;5053160;28;20673;-73
2024/02/23 11:02:17;;;;;;;4.57;2.40;;;;;;;11.28;39.22;93468.38;5052382;28;20116;-73
2024/02/23 11:04:50;;;;;;;2.97;2.33;;;;;;;11.37;39.50;93469.06;5052813;28;20057;-73
2024/02/23 11:07:16;;;;;;;3.38;2.10;;;;;;;11.63;39.86;93440.38;5052473;28;20056;-73
2024/02/23 11:09:41;;;;;;;4.60;2.20;;;;;;;11.53;38.61;93454.88;5052506;28;20072;-73
2024/02/23 11:12:07;;;;;;;5.28;2.22;;;;;;;11.60;38.98;93452.44;5052640;28;20044;-73
2024/02/23 11:14:35;;;;;;;3.17;2.10;;;;;;;11.73;39.14;93429.31;5035249;28;20486;-72
2024/02/23 11:17:02;;;;;;;4.38;2.20;;;;;;;12.16;38.72;93436.06;5052389;28;20375;-73
2024/02/23 11:19:37;;;;;;;8.68;2.45;;;;;;;12.12;38.62;93408.50;5052526;28;20035;-73
2024/02/23 11:22:04;;;;;;;20.40;2.85;;;;;;;12.02;38.40;93405.16;5052322;28;20025;-73